Etusivu
METAR-TAF:

METAR-TAF

Lentoasemat :

Ivalo, Suomi

Ivalon lentoasema

Leveyspiiri: 68-37N, Pituuspiiri: 027-25E, korkeus merenpinnasta: 147 m

Tämänhetkinen sää

Tämä raportti tehtiin 32 minuuttia sitten, kello 07.20 UTC
Tuuli 7 kn etelästä/lounaasta
Lämpötila -5°C
Kosteus 93%
Ilmanpaine 1026 hPa
Näkyvyys 10 km tai enemmän
Pilvistä 900 ft:n korkeudessa

METAR: EFIV 240720Z AUTO 21007KT 9999 OVC009 M05/M06 Q1026

Aika: 10:52 (07:52 UTC)

Sääennuste

Tämä raportti tehtiin 2 tuntia ja 19 minuuttia sitten, kello 05.33 UTC
Ennuste voimassa 24. päivästä klo 06 UTC - 24. päivään klo 10 UTC
Tuuli 10 kn lounaasta
Näkyvyys 10 km tai enemmän
Pilvistä 700 ft:n korkeudessa
Ajoittain
24. päivästä klo 06 UTC - 24. päivään klo 10 UTC
Pilvistä 1000 ft:n korkeudessa

TAF: EFIV 240533Z 2406/2410 23010KT 9999 OVC007 TEMPO 2406/2410 OVC010

Säähavainnot ja -ennusteet yli 4000 lentoasemalta (METAR- ja TAF-raportit).

Käytössä olevat sääasemat on merkitty karttaan keltaisilla ja punaisilla pisteillä.

Aseta hiiri pisteen päälle nähdäksesi sääaseman nimen.

Klikkaa sitten nähdäksesi säähavainnot ja -ennusteet.

Kartan vaihtaminen: klikkaa mustalla rastilla varustettuja vihreitä pisteitä, niin voit zoomata sisään; viivalla varustettua vihreää pistettä, niin voit zoomata ulos tai vihreitä nuolia, niin pääset viereisille kartoille.


METAR-TAF: